sensor_id;sensor_type;location;lat;lon;timestamp;P1;durP1;ratioP1;P2;durP2;ratioP2
11396;SDS011;5754;43.726;7.416;2022-09-03T00:01:19;3.65;;;2.58;;
11396;SDS011;5754;43.726;7.416;2022-09-03T00:03:55;3.35;;;2.72;;
11396;SDS011;5754;43.726;7.416;2022-09-03T00:06:34;4.30;;;2.75;;
11396;SDS011;5754;43.726;7.416;2022-09-03T00:09:32;2.85;;;2.30;;
11396;SDS011;5754;43.726;7.416;2022-09-03T00:12:17;4.12;;;2.50;;
11396;SDS011;5754;43.726;7.416;2022-09-03T00:15:40;3.25;;;2.62;;
11396;SDS011;5754;43.726;7.416;2022-09-03T00:18:21;5.30;;;2.60;;
11396;SDS011;5754;43.726;7.416;2022-09-03T00:20:57;2.65;;;2.45;;
11396;SDS011;5754;43.726;7.416;2022-09-03T00:23:41;2.50;;;2.30;;
11396;SDS011;5754;43.726;7.416;2022-09-03T00:26:23;3.05;;;2.62;;
11396;SDS011;5754;43.726;7.416;2022-09-03T00:29:02;3.67;;;2.45;;
11396;SDS011;5754;43.726;7.416;2022-09-03T00:31:50;5.68;;;2.65;;
11396;SDS011;5754;43.726;7.416;2022-09-03T00:34:31;3.72;;;2.60;;
11396;SDS011;5754;43.726;7.416;2022-09-03T00:37:08;2.70;;;2.50;;
11396;SDS011;5754;43.726;7.416;2022-09-03T00:39:44;3.37;;;2.40;;
11396;SDS011;5754;43.726;7.416;2022-09-03T00:42:38;5.32;;;2.70;;
11396;SDS011;5754;43.726;7.416;2022-09-03T00:45:22;4.35;;;2.70;;
11396;SDS011;5754;43.726;7.416;2022-09-03T00:48:20;3.42;;;2.67;;
11396;SDS011;5754;43.726;7.416;2022-09-03T01:02:50;3.37;;;2.70;;
11396;SDS011;5754;43.726;7.416;2022-09-03T01:05:44;3.35;;;2.70;;
11396;SDS011;5754;43.726;7.416;2022-09-03T01:14:44;4.18;;;2.53;;
11396;SDS011;5754;43.726;7.416;2022-09-03T01:28:09;2.60;;;2.40;;
11396;SDS011;5754;43.726;7.416;2022-09-03T01:30:48;2.67;;;2.47;;
11396;SDS011;5754;43.726;7.416;2022-09-03T01:38:46;2.58;;;2.37;;
11396;SDS011;5754;43.726;7.416;2022-09-03T01:49:55;3.22;;;2.60;;
11396;SDS011;5754;43.726;7.416;2022-09-03T01:52:44;3.37;;;2.67;;
11396;SDS011;5754;43.726;7.416;2022-09-03T02:00:04;2.80;;;2.33;;
11396;SDS011;5754;43.726;7.416;2022-09-03T02:02:47;3.00;;;2.33;;
11396;SDS011;5754;43.726;7.416;2022-09-03T02:05:25;4.50;;;2.60;;
11396;SDS011;5754;43.726;7.416;2022-09-03T02:08:05;2.83;;;2.30;;
11396;SDS011;5754;43.726;7.416;2022-09-03T02:10:54;2.33;;;2.17;;
11396;SDS011;5754;43.726;7.416;2022-09-03T02:13:44;4.07;;;2.58;;
11396;SDS011;5754;43.726;7.416;2022-09-03T02:16:21;4.28;;;2.33;;
11396;SDS011;5754;43.726;7.416;2022-09-03T02:19:00;2.75;;;2.45;;
11396;SDS011;5754;43.726;7.416;2022-09-03T02:21:42;2.67;;;2.47;;
11396;SDS011;5754;43.726;7.416;2022-09-03T02:24:23;2.90;;;2.62;;
11396;SDS011;5754;43.726;7.416;2022-09-03T02:26:58;2.97;;;2.33;;
11396;SDS011;5754;43.726;7.416;2022-09-03T02:29:34;2.78;;;2.33;;
11396;SDS011;5754;43.726;7.416;2022-09-03T02:32:10;2.40;;;2.20;;
11396;SDS011;5754;43.726;7.416;2022-09-03T02:37:40;4.10;;;2.55;;
11396;SDS011;5754;43.726;7.416;2022-09-03T02:40:17;2.70;;;2.50;;
11396;SDS011;5754;43.726;7.416;2022-09-03T02:42:53;3.33;;;2.62;;
11396;SDS011;5754;43.726;7.416;2022-09-03T02:45:27;4.20;;;2.70;;
11396;SDS011;5754;43.726;7.416;2022-09-03T02:48:03;3.08;;;2.50;;
11396;SDS011;5754;43.726;7.416;2022-09-03T02:50:41;2.78;;;2.37;;
11396;SDS011;5754;43.726;7.416;2022-09-03T02:53:17;2.80;;;2.50;;
11396;SDS011;5754;43.726;7.416;2022-09-03T02:55:56;2.95;;;2.35;;
11396;SDS011;5754;43.726;7.416;2022-09-03T02:58:32;4.05;;;2.70;;
11396;SDS011;5754;43.726;7.416;2022-09-03T03:01:09;2.62;;;2.40;;
11396;SDS011;5754;43.726;7.416;2022-09-03T03:03:45;3.33;;;2.50;;
11396;SDS011;5754;43.726;7.416;2022-09-03T03:06:21;3.20;;;2.70;;
11396;SDS011;5754;43.726;7.416;2022-09-03T03:08:56;2.58;;;2.37;;
11396;SDS011;5754;43.726;7.416;2022-09-03T03:11:32;3.70;;;2.50;;
11396;SDS011;5754;43.726;7.416;2022-09-03T03:14:08;4.05;;;2.70;;
11396;SDS011;5754;43.726;7.416;2022-09-03T03:16:43;4.03;;;2.55;;
11396;SDS011;5754;43.726;7.416;2022-09-03T03:19:19;2.62;;;2.28;;
11396;SDS011;5754;43.726;7.416;2022-09-03T03:21:55;3.33;;;2.65;;
11396;SDS011;5754;43.726;7.416;2022-09-03T03:24:33;2.65;;;2.45;;
11396;SDS011;5754;43.726;7.416;2022-09-03T03:27:09;2.60;;;2.40;;
11396;SDS011;5754;43.726;7.416;2022-09-03T03:29:46;2.95;;;2.58;;
11396;SDS011;5754;43.726;7.416;2022-09-03T03:32:22;3.65;;;2.45;;
11396;SDS011;5754;43.726;7.416;2022-09-03T03:34:58;3.75;;;2.80;;
11396;SDS011;5754;43.726;7.416;2022-09-03T03:37:34;3.35;;;2.78;;
11396;SDS011;5754;43.726;7.416;2022-09-03T03:40:09;2.50;;;2.30;;
11396;SDS011;5754;43.726;7.416;2022-09-03T03:42:45;2.97;;;2.30;;
11396;SDS011;5754;43.726;7.416;2022-09-03T03:45:20;3.00;;;2.30;;
11396;SDS011;5754;43.726;7.416;2022-09-03T03:47:57;2.45;;;2.25;;
11396;SDS011;5754;43.726;7.416;2022-09-03T03:50:33;2.78;;;2.35;;
11396;SDS011;5754;43.726;7.416;2022-09-03T03:53:09;3.00;;;2.70;;
11396;SDS011;5754;43.726;7.416;2022-09-03T03:55:54;4.45;;;2.42;;
11396;SDS011;5754;43.726;7.416;2022-09-03T03:58:31;3.25;;;2.40;;
11396;SDS011;5754;43.726;7.416;2022-09-03T04:01:10;2.28;;;2.08;;
11396;SDS011;5754;43.726;7.416;2022-09-03T04:03:47;3.53;;;2.45;;
11396;SDS011;5754;43.726;7.416;2022-09-03T04:06:23;2.42;;;2.20;;
11396;SDS011;5754;43.726;7.416;2022-09-03T04:08:59;4.12;;;2.42;;
11396;SDS011;5754;43.726;7.416;2022-09-03T04:11:33;3.08;;;2.33;;
11396;SDS011;5754;43.726;7.416;2022-09-03T04:14:11;3.00;;;2.25;;
11396;SDS011;5754;43.726;7.416;2022-09-03T04:16:48;3.67;;;2.42;;
11396;SDS011;5754;43.726;7.416;2022-09-03T04:19:26;2.83;;;2.25;;
11396;SDS011;5754;43.726;7.416;2022-09-03T04:22:04;3.22;;;2.30;;
11396;SDS011;5754;43.726;7.416;2022-09-03T04:24:38;2.47;;;2.28;;
11396;SDS011;5754;43.726;7.416;2022-09-03T04:27:14;2.67;;;2.47;;
11396;SDS011;5754;43.726;7.416;2022-09-03T04:29:49;2.75;;;2.37;;
11396;SDS011;5754;43.726;7.416;2022-09-03T04:32:24;5.40;;;2.33;;
11396;SDS011;5754;43.726;7.416;2022-09-03T04:35:19;2.95;;;2.35;;
11396;SDS011;5754;43.726;7.416;2022-09-03T04:37:54;4.53;;;2.55;;
11396;SDS011;5754;43.726;7.416;2022-09-03T04:40:29;2.67;;;2.30;;
11396;SDS011;5754;43.726;7.416;2022-09-03T04:43:04;3.08;;;2.78;;
11396;SDS011;5754;43.726;7.416;2022-09-03T04:45:39;3.72;;;2.20;;
11396;SDS011;5754;43.726;7.416;2022-09-03T04:48:14;2.50;;;2.30;;
11396;SDS011;5754;43.726;7.416;2022-09-03T04:50:50;2.67;;;2.20;;
11396;SDS011;5754;43.726;7.416;2022-09-03T04:53:24;3.15;;;2.80;;
11396;SDS011;5754;43.726;7.416;2022-09-03T04:56:01;2.90;;;2.62;;
11396;SDS011;5754;43.726;7.416;2022-09-03T04:58:37;4.93;;;2.60;;
11396;SDS011;5754;43.726;7.416;2022-09-03T05:01:17;5.07;;;2.78;;
11396;SDS011;5754;43.726;7.416;2022-09-03T05:03:53;3.33;;;2.45;;
11396;SDS011;5754;43.726;7.416;2022-09-03T05:06:34;3.37;;;2.40;;
11396;SDS011;5754;43.726;7.416;2022-09-03T05:09:10;2.97;;;2.62;;
11396;SDS011;5754;43.726;7.416;2022-09-03T05:11:49;4.95;;;2.60;;
11396;SDS011;5754;43.726;7.416;2022-09-03T05:14:23;2.78;;;2.25;;
11396;SDS011;5754;43.726;7.416;2022-09-03T05:17:00;2.53;;;2.30;;
11396;SDS011;5754;43.726;7.416;2022-09-03T05:19:36;2.97;;;2.60;;
11396;SDS011;5754;43.726;7.416;2022-09-03T05:22:12;4.53;;;2.30;;
11396;SDS011;5754;43.726;7.416;2022-09-03T05:24:55;2.92;;;2.40;;
11396;SDS011;5754;43.726;7.416;2022-09-03T05:27:30;3.35;;;2.42;;
11396;SDS011;5754;43.726;7.416;2022-09-03T05:30:06;4.03;;;2.50;;
11396;SDS011;5754;43.726;7.416;2022-09-03T05:32:41;2.67;;;2.47;;
11396;SDS011;5754;43.726;7.416;2022-09-03T05:35:17;2.72;;;2.40;;
11396;SDS011;5754;43.726;7.416;2022-09-03T05:37:53;3.65;;;2.45;;
11396;SDS011;5754;43.726;7.416;2022-09-03T05:40:30;3.00;;;2.30;;
11396;SDS011;5754;43.726;7.416;2022-09-03T05:43:06;3.35;;;2.30;;
11396;SDS011;5754;43.726;7.416;2022-09-03T05:45:42;2.50;;;2.30;;
11396;SDS011;5754;43.726;7.416;2022-09-03T05:48:16;3.10;;;2.80;;
11396;SDS011;5754;43.726;7.416;2022-09-03T05:51:01;2.60;;;2.40;;
11396;SDS011;5754;43.726;7.416;2022-09-03T05:53:46;3.05;;;2.20;;
11396;SDS011;5754;43.726;7.416;2022-09-03T05:56:22;3.72;;;2.62;;
11396;SDS011;5754;43.726;7.416;2022-09-03T05:58:58;2.95;;;2.35;;
11396;SDS011;5754;43.726;7.416;2022-09-03T06:01:42;3.35;;;2.08;;
11396;SDS011;5754;43.726;7.416;2022-09-03T06:04:19;3.42;;;2.10;;
11396;SDS011;5754;43.726;7.416;2022-09-03T06:06:53;3.55;;;1.95;;
11396;SDS011;5754;43.726;7.416;2022-09-03T06:09:29;3.05;;;2.37;;
11396;SDS011;5754;43.726;7.416;2022-09-03T06:12:04;2.33;;;2.12;;
11396;SDS011;5754;43.726;7.416;2022-09-03T06:14:40;2.80;;;2.45;;
11396;SDS011;5754;43.726;7.416;2022-09-03T06:17:16;2.55;;;2.30;;
11396;SDS011;5754;43.726;7.416;2022-09-03T06:19:51;2.65;;;1.92;;
11396;SDS011;5754;43.726;7.416;2022-09-03T06:22:26;2.30;;;2.10;;
11396;SDS011;5754;43.726;7.416;2022-09-03T06:25:04;2.25;;;2.03;;
11396;SDS011;5754;43.726;7.416;2022-09-03T06:27:40;2.80;;;2.20;;
11396;SDS011;5754;43.726;7.416;2022-09-03T06:30:16;2.28;;;2.08;;
11396;SDS011;5754;43.726;7.416;2022-09-03T06:32:51;2.25;;;1.85;;
11396;SDS011;5754;43.726;7.416;2022-09-03T06:35:27;2.67;;;2.00;;
11396;SDS011;5754;43.726;7.416;2022-09-03T06:38:03;2.20;;;2.00;;
11396;SDS011;5754;43.726;7.416;2022-09-03T06:40:38;4.32;;;2.10;;
11396;SDS011;5754;43.726;7.416;2022-09-03T06:43:12;2.58;;;2.30;;
11396;SDS011;5754;43.726;7.416;2022-09-03T06:46:21;3.70;;;2.47;;
11396;SDS011;5754;43.726;7.416;2022-09-03T06:48:58;3.90;;;2.45;;
11396;SDS011;5754;43.726;7.416;2022-09-03T06:51:34;2.37;;;2.08;;
11396;SDS011;5754;43.726;7.416;2022-09-03T06:54:11;2.92;;;2.30;;
11396;SDS011;5754;43.726;7.416;2022-09-03T06:56:45;2.35;;;2.10;;
11396;SDS011;5754;43.726;7.416;2022-09-03T06:59:20;3.83;;;2.25;;
11396;SDS011;5754;43.726;7.416;2022-09-03T07:01:57;2.60;;;2.15;;
11396;SDS011;5754;43.726;7.416;2022-09-03T07:04:34;5.25;;;2.15;;
11396;SDS011;5754;43.726;7.416;2022-09-03T07:07:10;4.28;;;2.10;;
11396;SDS011;5754;43.726;7.416;2022-09-03T07:09:48;2.55;;;2.10;;
11396;SDS011;5754;43.726;7.416;2022-09-03T07:12:23;3.35;;;1.98;;
11396;SDS011;5754;43.726;7.416;2022-09-03T07:14:58;2.60;;;2.10;;
11396;SDS011;5754;43.726;7.416;2022-09-03T07:17:34;4.65;;;2.00;;
11396;SDS011;5754;43.726;7.416;2022-09-03T07:20:10;2.40;;;2.17;;
11396;SDS011;5754;43.726;7.416;2022-09-03T07:22:54;1.98;;;1.87;;
11396;SDS011;5754;43.726;7.416;2022-09-03T07:25:31;3.30;;;2.00;;
11396;SDS011;5754;43.726;7.416;2022-09-03T07:28:05;2.17;;;2.00;;
11396;SDS011;5754;43.726;7.416;2022-09-03T07:30:44;4.30;;;2.58;;
11396;SDS011;5754;43.726;7.416;2022-09-03T07:33:20;2.58;;;2.35;;
11396;SDS011;5754;43.726;7.416;2022-09-03T07:35:55;3.85;;;2.10;;
11396;SDS011;5754;43.726;7.416;2022-09-03T07:38:33;2.58;;;2.15;;
11396;SDS011;5754;43.726;7.416;2022-09-03T07:41:08;3.30;;;2.00;;
11396;SDS011;5754;43.726;7.416;2022-09-03T07:43:46;3.08;;;2.05;;
11396;SDS011;5754;43.726;7.416;2022-09-03T07:46:24;3.65;;;2.35;;
11396;SDS011;5754;43.726;7.416;2022-09-03T07:49:00;2.58;;;2.20;;
11396;SDS011;5754;43.726;7.416;2022-09-03T07:51:37;3.55;;;2.47;;
11396;SDS011;5754;43.726;7.416;2022-09-03T07:54:13;2.53;;;1.92;;
11396;SDS011;5754;43.726;7.416;2022-09-03T07:56:49;3.12;;;2.20;;
11396;SDS011;5754;43.726;7.416;2022-09-03T07:59:24;4.50;;;2.22;;
11396;SDS011;5754;43.726;7.416;2022-09-03T08:02:01;2.80;;;2.22;;
11396;SDS011;5754;43.726;7.416;2022-09-03T08:04:39;1.98;;;1.80;;
11396;SDS011;5754;43.726;7.416;2022-09-03T08:07:15;2.42;;;2.20;;
11396;SDS011;5754;43.726;7.416;2022-09-03T08:09:50;2.78;;;2.33;;
11396;SDS011;5754;43.726;7.416;2022-09-03T08:12:25;3.25;;;2.20;;
11396;SDS011;5754;43.726;7.416;2022-09-03T08:15:00;2.90;;;2.17;;
11396;SDS011;5754;43.726;7.416;2022-09-03T08:17:35;2.45;;;2.25;;
11396;SDS011;5754;43.726;7.416;2022-09-03T08:20:11;2.75;;;2.30;;
11396;SDS011;5754;43.726;7.416;2022-09-03T08:25:33;3.12;;;2.65;;
11396;SDS011;5754;43.726;7.416;2022-09-03T08:28:07;2.60;;;2.40;;
11396;SDS011;5754;43.726;7.416;2022-09-03T08:30:42;2.87;;;2.30;;
11396;SDS011;5754;43.726;7.416;2022-09-03T08:33:16;3.70;;;2.97;;
11396;SDS011;5754;43.726;7.416;2022-09-03T08:36:11;5.00;;;2.67;;
11396;SDS011;5754;43.726;7.416;2022-09-03T08:38:49;4.57;;;4.05;;
11396;SDS011;5754;43.726;7.416;2022-09-03T08:45:55;9.95;;;3.25;;
11396;SDS011;5754;43.726;7.416;2022-09-03T08:48:32;11.12;;;3.30;;
11396;SDS011;5754;43.726;7.416;2022-09-03T08:51:08;9.80;;;3.45;;
11396;SDS011;5754;43.726;7.416;2022-09-03T08:53:46;12.15;;;3.72;;
11396;SDS011;5754;43.726;7.416;2022-09-03T08:56:24;11.82;;;3.22;;
11396;SDS011;5754;43.726;7.416;2022-09-03T08:59:01;9.02;;;3.05;;
11396;SDS011;5754;43.726;7.416;2022-09-03T09:02:25;11.32;;;2.78;;
11396;SDS011;5754;43.726;7.416;2022-09-03T09:05:11;7.35;;;2.87;;
11396;SDS011;5754;43.726;7.416;2022-09-03T09:07:52;7.12;;;2.95;;
11396;SDS011;5754;43.726;7.416;2022-09-03T09:10:32;9.00;;;2.85;;
11396;SDS011;5754;43.726;7.416;2022-09-03T09:13:29;4.90;;;2.62;;
11396;SDS011;5754;43.726;7.416;2022-09-03T09:16:26;6.55;;;2.90;;
11396;SDS011;5754;43.726;7.416;2022-09-03T09:19:19;4.00;;;2.62;;
11396;SDS011;5754;43.726;7.416;2022-09-03T09:22:00;6.05;;;2.47;;
11396;SDS011;5754;43.726;7.416;2022-09-03T09:24:45;3.55;;;2.50;;
11396;SDS011;5754;43.726;7.416;2022-09-03T09:27:21;5.72;;;2.90;;
11396;SDS011;5754;43.726;7.416;2022-09-03T09:29:57;5.30;;;2.60;;
11396;SDS011;5754;43.726;7.416;2022-09-03T09:32:34;4.28;;;2.60;;
11396;SDS011;5754;43.726;7.416;2022-09-03T09:35:10;7.10;;;3.12;;
11396;SDS011;5754;43.726;7.416;2022-09-03T09:37:45;8.40;;;2.85;;
11396;SDS011;5754;43.726;7.416;2022-09-03T09:40:21;6.70;;;2.90;;
11396;SDS011;5754;43.726;7.416;2022-09-03T09:46:36;8.52;;;3.22;;
11396;SDS011;5754;43.726;7.416;2022-09-03T09:53:40;7.45;;;2.70;;
11396;SDS011;5754;43.726;7.416;2022-09-03T09:56:23;4.95;;;2.62;;
11396;SDS011;5754;43.726;7.416;2022-09-03T09:59:10;5.57;;;2.78;;
11396;SDS011;5754;43.726;7.416;2022-09-03T10:01:45;3.80;;;2.87;;
11396;SDS011;5754;43.726;7.416;2022-09-03T10:04:23;5.82;;;3.10;;
11396;SDS011;5754;43.726;7.416;2022-09-03T10:07:27;4.47;;;3.00;;
11396;SDS011;5754;43.726;7.416;2022-09-03T10:13:12;4.25;;;2.95;;
11396;SDS011;5754;43.726;7.416;2022-09-03T10:16:04;6.90;;;2.80;;
11396;SDS011;5754;43.726;7.416;2022-09-03T10:19:08;3.92;;;3.15;;
11396;SDS011;5754;43.726;7.416;2022-09-03T10:21:49;5.57;;;3.55;;
11396;SDS011;5754;43.726;7.416;2022-09-03T10:24:37;4.07;;;2.78;;
11396;SDS011;5754;43.726;7.416;2022-09-03T10:27:13;4.50;;;2.83;;
11396;SDS011;5754;43.726;7.416;2022-09-03T10:29:49;5.70;;;2.95;;
11396;SDS011;5754;43.726;7.416;2022-09-03T10:36:24;4.35;;;2.80;;
11396;SDS011;5754;43.726;7.416;2022-09-03T10:39:09;4.97;;;3.00;;
11396;SDS011;5754;43.726;7.416;2022-09-03T10:42:00;4.80;;;2.80;;
11396;SDS011;5754;43.726;7.416;2022-09-03T10:44:44;3.75;;;3.05;;
11396;SDS011;5754;43.726;7.416;2022-09-03T10:47:36;3.33;;;2.62;;
11396;SDS011;5754;43.726;7.416;2022-09-03T10:50:14;4.53;;;2.60;;
11396;SDS011;5754;43.726;7.416;2022-09-03T10:52:57;5.97;;;3.05;;
11396;SDS011;5754;43.726;7.416;2022-09-03T10:56:13;7.20;;;3.40;;
11396;SDS011;5754;43.726;7.416;2022-09-03T10:59:03;5.53;;;3.03;;
11396;SDS011;5754;43.726;7.416;2022-09-03T11:12:19;7.65;;;3.20;;
11396;SDS011;5754;43.726;7.416;2022-09-03T11:14:59;4.57;;;2.75;;
11396;SDS011;5754;43.726;7.416;2022-09-03T11:17:39;2.92;;;2.70;;
11396;SDS011;5754;43.726;7.416;2022-09-03T11:20:20;4.32;;;3.20;;
11396;SDS011;5754;43.726;7.416;2022-09-03T11:22:57;4.07;;;3.20;;
11396;SDS011;5754;43.726;7.416;2022-09-03T11:25:36;4.45;;;3.42;;
11396;SDS011;5754;43.726;7.416;2022-09-03T11:28:57;4.05;;;3.20;;
11396;SDS011;5754;43.726;7.416;2022-09-03T11:31:51;3.75;;;3.12;;
11396;SDS011;5754;43.726;7.416;2022-09-03T11:38:59;6.03;;;3.30;;
11396;SDS011;5754;43.726;7.416;2022-09-03T11:41:33;4.15;;;3.75;;
11396;SDS011;5754;43.726;7.416;2022-09-03T11:44:16;5.75;;;3.03;;
11396;SDS011;5754;43.726;7.416;2022-09-03T11:46:54;4.70;;;3.40;;
11396;SDS011;5754;43.726;7.416;2022-09-03T11:49:31;6.43;;;3.25;;
11396;SDS011;5754;43.726;7.416;2022-09-03T11:52:09;3.45;;;3.10;;
11396;SDS011;5754;43.726;7.416;2022-09-03T11:54:45;6.85;;;3.95;;
11396;SDS011;5754;43.726;7.416;2022-09-03T11:57:29;6.80;;;3.17;;
11396;SDS011;5754;43.726;7.416;2022-09-03T12:00:16;4.30;;;3.50;;
11396;SDS011;5754;43.726;7.416;2022-09-03T12:02:55;6.30;;;3.20;;
11396;SDS011;5754;43.726;7.416;2022-09-03T12:05:45;6.68;;;3.33;;
11396;SDS011;5754;43.726;7.416;2022-09-03T12:12:44;6.93;;;3.40;;
11396;SDS011;5754;43.726;7.416;2022-09-03T12:18:23;4.22;;;2.87;;
11396;SDS011;5754;43.726;7.416;2022-09-03T12:21:00;4.72;;;2.87;;
11396;SDS011;5754;43.726;7.416;2022-09-03T12:23:45;6.18;;;2.67;;
11396;SDS011;5754;43.726;7.416;2022-09-03T12:26:23;3.33;;;2.60;;
11396;SDS011;5754;43.726;7.416;2022-09-03T12:28:59;3.65;;;2.60;;
11396;SDS011;5754;43.726;7.416;2022-09-03T12:31:42;5.10;;;2.97;;
11396;SDS011;5754;43.726;7.416;2022-09-03T12:34:19;4.53;;;3.10;;
11396;SDS011;5754;43.726;7.416;2022-09-03T12:36:54;4.25;;;2.92;;
11396;SDS011;5754;43.726;7.416;2022-09-03T12:39:33;6.60;;;3.10;;
11396;SDS011;5754;43.726;7.416;2022-09-03T12:42:38;4.82;;;3.10;;
11396;SDS011;5754;43.726;7.416;2022-09-03T12:45:13;4.50;;;2.85;;
11396;SDS011;5754;43.726;7.416;2022-09-03T12:47:48;5.05;;;2.67;;
11396;SDS011;5754;43.726;7.416;2022-09-03T12:50:28;5.12;;;2.60;;
11396;SDS011;5754;43.726;7.416;2022-09-03T12:53:03;3.80;;;2.50;;
11396;SDS011;5754;43.726;7.416;2022-09-03T12:55:50;9.40;;;3.00;;
11396;SDS011;5754;43.726;7.416;2022-09-03T12:58:33;5.50;;;2.80;;
11396;SDS011;5754;43.726;7.416;2022-09-03T13:01:12;6.65;;;2.90;;
11396;SDS011;5754;43.726;7.416;2022-09-03T13:04:13;3.92;;;2.72;;
11396;SDS011;5754;43.726;7.416;2022-09-03T13:06:55;3.83;;;2.72;;
11396;SDS011;5754;43.726;7.416;2022-09-03T13:09:35;5.32;;;2.47;;
11396;SDS011;5754;43.726;7.416;2022-09-03T13:12:22;5.43;;;2.87;;
11396;SDS011;5754;43.726;7.416;2022-09-03T13:15:04;3.62;;;2.58;;
11396;SDS011;5754;43.726;7.416;2022-09-03T13:17:47;5.00;;;2.90;;
11396;SDS011;5754;43.726;7.416;2022-09-03T13:20:33;5.87;;;2.78;;
11396;SDS011;5754;43.726;7.416;2022-09-03T13:23:56;2.87;;;2.40;;
11396;SDS011;5754;43.726;7.416;2022-09-03T13:34:15;3.65;;;2.60;;
11396;SDS011;5754;43.726;7.416;2022-09-03T13:37:15;3.75;;;2.50;;
11396;SDS011;5754;43.726;7.416;2022-09-03T13:39:54;5.25;;;2.35;;
11396;SDS011;5754;43.726;7.416;2022-09-03T13:42:32;5.62;;;2.60;;
11396;SDS011;5754;43.726;7.416;2022-09-03T13:45:34;4.47;;;2.78;;
11396;SDS011;5754;43.726;7.416;2022-09-03T13:48:16;4.62;;;2.60;;
11396;SDS011;5754;43.726;7.416;2022-09-03T13:58:05;7.70;;;2.75;;
11396;SDS011;5754;43.726;7.416;2022-09-03T14:00:42;3.55;;;2.72;;
11396;SDS011;5754;43.726;7.416;2022-09-03T14:06:41;5.55;;;2.85;;
11396;SDS011;5754;43.726;7.416;2022-09-03T14:13:41;6.65;;;2.72;;
11396;SDS011;5754;43.726;7.416;2022-09-03T14:20:28;4.30;;;2.70;;
11396;SDS011;5754;43.726;7.416;2022-09-03T14:23:06;3.20;;;2.45;;
11396;SDS011;5754;43.726;7.416;2022-09-03T14:25:52;3.53;;;2.62;;
11396;SDS011;5754;43.726;7.416;2022-09-03T14:28:32;4.25;;;2.25;;
11396;SDS011;5754;43.726;7.416;2022-09-03T14:31:16;4.65;;;3.05;;
11396;SDS011;5754;43.726;7.416;2022-09-03T14:34:12;4.30;;;2.33;;
11396;SDS011;5754;43.726;7.416;2022-09-03T14:37:38;3.85;;;2.35;;
11396;SDS011;5754;43.726;7.416;2022-09-03T14:40:39;4.50;;;2.72;;
11396;SDS011;5754;43.726;7.416;2022-09-03T14:48:52;7.32;;;3.00;;
11396;SDS011;5754;43.726;7.416;2022-09-03T14:58:24;8.73;;;3.28;;
11396;SDS011;5754;43.726;7.416;2022-09-03T15:01:39;10.10;;;3.35;;
11396;SDS011;5754;43.726;7.416;2022-09-03T15:07:23;4.57;;;2.87;;
11396;SDS011;5754;43.726;7.416;2022-09-03T15:10:20;10.45;;;3.08;;
11396;SDS011;5754;43.726;7.416;2022-09-03T15:13:07;6.35;;;2.80;;
11396;SDS011;5754;43.726;7.416;2022-09-03T15:16:05;5.75;;;2.70;;
11396;SDS011;5754;43.726;7.416;2022-09-03T15:24:50;6.82;;;3.08;;
11396;SDS011;5754;43.726;7.416;2022-09-03T15:30:20;11.18;;;3.50;;
11396;SDS011;5754;43.726;7.416;2022-09-03T15:33:01;9.18;;;3.25;;
11396;SDS011;5754;43.726;7.416;2022-09-03T15:39:41;10.75;;;3.45;;
11396;SDS011;5754;43.726;7.416;2022-09-03T15:42:23;6.75;;;3.40;;
11396;SDS011;5754;43.726;7.416;2022-09-03T15:45:35;12.57;;;3.50;;
11396;SDS011;5754;43.726;7.416;2022-09-03T15:55:22;12.00;;;4.00;;
11396;SDS011;5754;43.726;7.416;2022-09-03T15:59:01;11.88;;;3.62;;
11396;SDS011;5754;43.726;7.416;2022-09-03T16:01:39;6.70;;;3.12;;
11396;SDS011;5754;43.726;7.416;2022-09-03T16:04:24;12.85;;;3.47;;
11396;SDS011;5754;43.726;7.416;2022-09-03T16:07:02;12.10;;;3.42;;
11396;SDS011;5754;43.726;7.416;2022-09-03T16:09:46;16.02;;;3.95;;
11396;SDS011;5754;43.726;7.416;2022-09-03T16:18:00;10.60;;;3.37;;
11396;SDS011;5754;43.726;7.416;2022-09-03T16:20:37;12.45;;;3.72;;
11396;SDS011;5754;43.726;7.416;2022-09-03T16:26:13;12.43;;;3.53;;
11396;SDS011;5754;43.726;7.416;2022-09-03T16:28:52;9.95;;;3.70;;
11396;SDS011;5754;43.726;7.416;2022-09-03T16:35:55;8.20;;;3.05;;
11396;SDS011;5754;43.726;7.416;2022-09-03T16:52:44;10.85;;;3.42;;
11396;SDS011;5754;43.726;7.416;2022-09-03T16:55:51;9.23;;;2.92;;
11396;SDS011;5754;43.726;7.416;2022-09-03T16:58:33;9.88;;;3.75;;
11396;SDS011;5754;43.726;7.416;2022-09-03T17:01:32;13.73;;;3.87;;
11396;SDS011;5754;43.726;7.416;2022-09-03T17:07:30;10.23;;;3.50;;
11396;SDS011;5754;43.726;7.416;2022-09-03T17:10:13;7.85;;;3.03;;
11396;SDS011;5754;43.726;7.416;2022-09-03T17:15:48;9.05;;;3.47;;
11396;SDS011;5754;43.726;7.416;2022-09-03T17:29:52;8.75;;;3.75;;
11396;SDS011;5754;43.726;7.416;2022-09-03T17:32:38;9.57;;;3.33;;
11396;SDS011;5754;43.726;7.416;2022-09-03T17:35:40;11.00;;;3.53;;
11396;SDS011;5754;43.726;7.416;2022-09-03T17:38:59;6.35;;;2.92;;
11396;SDS011;5754;43.726;7.416;2022-09-03T17:41:53;8.57;;;3.05;;
11396;SDS011;5754;43.726;7.416;2022-09-03T17:48:43;7.97;;;2.70;;
11396;SDS011;5754;43.726;7.416;2022-09-03T17:54:39;9.15;;;4.70;;
11396;SDS011;5754;43.726;7.416;2022-09-03T17:57:37;7.18;;;4.07;;
11396;SDS011;5754;43.726;7.416;2022-09-03T18:00:22;10.27;;;3.47;;
11396;SDS011;5754;43.726;7.416;2022-09-03T18:03:10;7.65;;;3.35;;
11396;SDS011;5754;43.726;7.416;2022-09-03T18:10:16;7.18;;;3.20;;
11396;SDS011;5754;43.726;7.416;2022-09-03T18:13:03;6.78;;;3.08;;
11396;SDS011;5754;43.726;7.416;2022-09-03T18:15:58;6.45;;;2.90;;
11396;SDS011;5754;43.726;7.416;2022-09-03T18:18:36;10.35;;;3.30;;
11396;SDS011;5754;43.726;7.416;2022-09-03T18:21:16;7.37;;;3.60;;
11396;SDS011;5754;43.726;7.416;2022-09-03T18:24:29;8.15;;;3.45;;
11396;SDS011;5754;43.726;7.416;2022-09-03T18:27:32;5.43;;;3.20;;
11396;SDS011;5754;43.726;7.416;2022-09-03T18:30:29;8.60;;;4.15;;
11396;SDS011;5754;43.726;7.416;2022-09-03T18:33:23;6.78;;;3.55;;
11396;SDS011;5754;43.726;7.416;2022-09-03T18:36:17;7.45;;;3.17;;
11396;SDS011;5754;43.726;7.416;2022-09-03T18:39:18;9.45;;;3.33;;
11396;SDS011;5754;43.726;7.416;2022-09-03T18:45:42;7.32;;;3.40;;
11396;SDS011;5754;43.726;7.416;2022-09-03T18:52:41;4.57;;;2.95;;
